| time (UTC) | temp F | wind direction | speed knots | gust knots | rain 1hr in | rain 24hr in | rain mn in | humidity % | barometer mb |
| 20260509054413 | 71 | 305 | 0.0 | 0.0 | 0.00 | 0.00 | 0.00 | 87 | 1008.8 |
| 20260509053911 | 71 | 291 | 0.0 | 0.0 | 0.00 | 0.00 | 0.00 | 87 | 1008.7 |
| 20260509053409 | 71 | 291 | 0.0 | 0.0 | 0.00 | 0.00 | 0.00 | 86 | 1008.7 |
| 20260509052906 | 71 | 257 | 0.0 | 0.0 | 0.00 | 0.00 | 0.00 | 86 | 1009.1 |
| 20260509052403 | 71 | 263 | 0.9 | 1.7 | 0.00 | 0.00 | 0.00 | 86 | 1008.9 |
| 20260509051901 | 71 | 307 | 0.0 | 0.0 | 0.00 | 0.00 | 0.00 | 86 | 1008.8 |
| 20260509051359 | 71 | 292 | 0.0 | 0.0 | 0.00 | 0.00 | 0.00 | 85 | 1008.8 |
| 20260509050855 | 71 | 300 | 0.0 | 0.0 | 0.00 | 0.00 | 0.00 | 85 | 1009.6 |
| 20260509050352 | 71 | 2 | 1.7 | 1.7 | 0.00 | 0.00 | 0.00 | 86 | 1010.2 |
| 20260509045849 | 71 | 268 | 1.7 | 1.7 | 0.00 | 0.67 | 0.67 | 86 | 1009.4 |
| 20260509045346 | 71 | 321 | 0.0 | 0.9 | 0.00 | 0.67 | 0.67 | 86 | 1008.9 |
| 20260509044843 | 71 | 292 | 0.0 | 0.0 | 0.00 | 0.67 | 0.67 | 86 | 1008.3 |
| 20260509044341 | 71 | 288 | 0.0 | 0.0 | 0.00 | 0.67 | 0.67 | 85 | 1008.1 |
| 20260509043837 | 71 | 293 | 0.0 | 0.0 | 0.00 | 0.67 | 0.67 | 85 | 1008.0 |
| 20260509043333 | 71 | 301 | 0.0 | 0.0 | 0.00 | 0.67 | 0.67 | 85 | 1008.2 |
| 20260509042829 | 71 | 280 | 0.0 | 0.0 | 0.00 | 0.67 | 0.67 | 85 | 1007.8 |
| 20260509042326 | 71 | 312 | 0.0 | 0.0 | 0.00 | 0.67 | 0.67 | 84 | 1007.7 |
| 20260509041822 | 71 | 205 | 0.9 | 1.7 | 0.00 | 0.67 | 0.67 | 84 | 1008.1 |
| 20260509041319 | 71 | 236 | 0.0 | 0.0 | 0.00 | 0.67 | 0.67 | 84 | 1008.1 |
| 20260509040818 | 71 | 239 | 0.0 | 0.0 | 0.00 | 0.67 | 0.67 | 84 | 1008.1 |
| 20260509040315 | 71 | 314 | 0.0 | 0.0 | 0.00 | 0.67 | 0.67 | 84 | 1008.0 |
| 20260509035812 | 72 | 325 | 0.0 | 0.0 | 0.00 | 0.67 | 0.67 | 84 | 1007.9 |
| 20260509035309 | 72 | 131 | 0.0 | 0.0 | 0.00 | 0.67 | 0.67 | 84 | 1007.8 |
| 20260509034805 | 72 | 303 | 0.0 | 0.0 | 0.00 | 0.67 | 0.67 | 84 | 1008.2 |
| 20260509034303 | 72 | 121 | 0.0 | 0.9 | 0.00 | 0.67 | 0.67 | 83 | 1008.1 |
| 20260509033759 | 73 | 41 | 0.0 | 0.0 | 0.00 | 0.67 | 0.67 | 82 | 1008.6 |
| 20260509033257 | 73 | 350 | 0.0 | 0.0 | 0.00 | 0.67 | 0.67 | 82 | 1009.3 |
| 20260509032754 | 73 | 333 | 0.0 | 0.9 | 0.00 | 0.67 | 0.67 | 82 | 1009.1 |
| 20260509032250 | 73 | 337 | 0.0 | 0.0 | 0.00 | 0.67 | 0.67 | 82 | 1008.9 |
| 20260509031748 | 72 | 295 | 0.0 | 0.0 | 0.00 | 0.67 | 0.67 | 82 | 1008.6 |
| 20260509031245 | 72 | 311 | 0.0 | 0.0 | 0.00 | 0.67 | 0.67 | 82 | 1008.3 |
| 20260509030743 | 73 | 302 | 0.0 | 0.0 | 0.00 | 0.67 | 0.67 | 82 | 1008.5 |
| 20260509030241 | 72 | 287 | 0.0 | 0.0 | 0.00 | 0.67 | 0.67 | 82 | 1008.5 |
| 20260509025737 | 72 | 346 | 0.0 | 0.0 | 0.00 | 0.67 | 0.67 | 82 | 1008.5 |
| 20260509025233 | 72 | 312 | 0.0 | 0.0 | 0.00 | 0.67 | 0.67 | 83 | 1008.2 |
| 20260509024728 | 72 | 342 | 0.0 | 0.9 | 0.00 | 0.67 | 0.67 | 83 | 1008.0 |
| 20260509024224 | 72 | 296 | 0.0 | 0.0 | 0.00 | 0.67 | 0.67 | 83 | 1008.0 |
| 20260509023722 | 72 | 319 | 0.0 | 0.0 | 0.00 | 0.67 | 0.67 | 82 | 1007.9 |
| 20260509023219 | 72 | 330 | 0.0 | 0.0 | 0.00 | 0.67 | 0.67 | 82 | 1007.9 |
| 20260509022715 | 72 | 272 | 4.3 | 5.2 | 0.00 | 0.67 | 0.67 | 82 | 1007.3 |
| 20260509022213 | 72 | 280 | 0.0 | 0.0 | 0.00 | 0.67 | 0.67 | 82 | 1007.2 |
| 20260509021710 | 72 | 170 | 0.9 | 0.9 | 0.00 | 0.67 | 0.67 | 82 | 1006.8 |
| 20260509021207 | 72 | 270 | 0.0 | 0.0 | 0.00 | 0.67 | 0.67 | 81 | 1006.8 |
| 20260509020705 | 73 | 230 | 0.0 | 0.0 | 0.00 | 0.67 | 0.67 | 81 | 1007.0 |
| 20260509020202 | 73 | 249 | 0.0 | 0.0 | 0.00 | 0.67 | 0.67 | 81 | 1007.0 |
| 20260509015700 | 73 | 215 | 0.9 | 0.9 | 0.00 | 0.67 | 0.67 | 81 | 1007.2 |
| 20260509015158 | 73 | 233 | 1.7 | 4.3 | 0.00 | 0.67 | 0.67 | 81 | 1006.7 |
| 20260509014654 | 73 | 236 | 0.0 | 0.9 | 0.00 | 0.67 | 0.67 | 80 | 1006.7 |
| 20260509014150 | 73 | 322 | 0.0 | 0.0 | 0.00 | 0.67 | 0.67 | 80 | 1006.6 |
| 20260509013648 | 73 | 182 | 0.0 | 0.0 | 0.00 | 0.67 | 0.67 | 80 | 1006.6 |
| 20260509013143 | 73 | 287 | 0.0 | 0.0 | 0.00 | 0.67 | 0.67 | 79 | 1006.6 |
| 20260509012640 | 73 | 172 | 0.0 | 0.9 | 0.00 | 0.67 | 0.67 | 79 | 1006.7 |
| 20260509012137 | 73 | 289 | 0.0 | 0.0 | 0.00 | 0.67 | 0.67 | 79 | 1007.0 |
| 20260509011635 | 73 | 224 | 0.0 | 0.9 | 0.00 | 0.67 | 0.67 | 79 | 1006.8 |
| 20260509011132 | 73 | 328 | 0.0 | 0.9 | 0.00 | 0.67 | 0.67 | 78 | 1006.8 |
| 20260509010630 | 73 | 275 | 0.0 | 0.9 | 0.00 | 0.67 | 0.67 | 78 | 1006.8 |
| 20260509010126 | 74 | 310 | 0.0 | 0.0 | 0.00 | 0.67 | 0.67 | 77 | 1006.8 |
| 20260509005624 | 74 | 325 | 0.0 | 0.0 | 0.00 | 0.67 | 0.67 | 77 | 1006.8 |
| 20260509005120 | 74 | 303 | 0.0 | 0.0 | 0.00 | 0.67 | 0.67 | 77 | 1006.5 |
| 20260509004616 | 74 | 276 | 0.0 | 0.0 | 0.00 | 0.67 | 0.67 | 76 | 1006.4 |
| 20260509004113 | 74 | 299 | 0.0 | 0.9 | 0.00 | 0.67 | 0.67 | 76 | 1006.3 |
| 20260509003611 | 75 | 174 | 0.0 | 0.0 | 0.00 | 0.67 | 0.67 | 76 | 1006.3 |
| 20260509003108 | 75 | 225 | 0.9 | 0.9 | 0.00 | 0.67 | 0.67 | 75 | 1006.3 |
| 20260509002606 | 75 | 268 | 0.0 | 0.9 | 0.00 | 0.67 | 0.67 | 75 | 1006.1 |
| 20260509002103 | 75 | 213 | 0.0 | 0.9 | 0.00 | 0.67 | 0.67 | 75 | 1006.2 |
| 20260509001600 | 75 | 174 | 1.7 | 1.7 | 0.00 | 0.67 | 0.67 | 75 | 1006.2 |
| 20260509001056 | 75 | 190 | 0.9 | 0.9 | 0.00 | 0.67 | 0.67 | 74 | 1006.3 |
| 20260509000555 | 75 | 304 | 0.0 | 0.9 | 0.00 | 0.67 | 0.67 | 74 | 1006.2 |
| 20260509000050 | 75 | 298 | 0.0 | 0.9 | 0.00 | 0.67 | 0.67 | 74 | 1006.3 |
| 20260508235548 | 75 | 251 | 0.0 | 0.0 | 0.00 | 0.67 | 0.67 | 74 | 1006.4 |
| 20260508235044 | 75 | 217 | 0.9 | 0.9 | 0.00 | 0.67 | 0.67 | 73 | 1006.5 |
| 20260508234542 | 75 | 275 | 0.0 | 0.9 | 0.00 | 0.67 | 0.67 | 73 | 1006.5 |
| 20260508234038 | 75 | 188 | 0.0 | 0.0 | 0.00 | 0.67 | 0.67 | 73 | 1006.5 |
| 20260508233538 | 76 | 135 | 0.0 | 0.9 | 0.00 | 0.67 | 0.67 | 72 | 1006.5 |
| 20260508233035 | 76 | 305 | 0.0 | 0.0 | 0.00 | 0.67 | 0.67 | 72 | 1006.7 |
| 20260508232531 | 77 | 99 | 0.9 | 0.9 | 0.00 | 0.67 | 0.67 | 71 | 1006.5 |
| 20260508232029 | 77 | 339 | 0.0 | 0.0 | 0.00 | 0.67 | 0.67 | 71 | 1006.7 |
| 20260508231526 | 77 | 286 | 0.0 | 0.0 | 0.00 | 0.67 | 0.67 | 71 | 1006.8 |
| 20260508231023 | 77 | 268 | 0.0 | 0.0 | 0.00 | 0.67 | 0.67 | 72 | 1006.5 |
| 20260508230520 | 77 | 225 | 0.9 | 0.9 | 0.00 | 0.67 | 0.67 | 71 | 1006.6 |
| 20260508230017 | 77 | 167 | 0.9 | 0.9 | 0.00 | 0.67 | 0.67 | 70 | 1006.8 |
| 20260508225514 | 77 | 309 | 0.0 | 0.0 | 0.00 | 0.67 | 0.67 | 70 | 1006.8 |
| 20260508225010 | 77 | 290 | 0.0 | 0.0 | 0.00 | 0.67 | 0.67 | 71 | 1006.8 |
| 20260508224508 | 77 | 352 | 0.0 | 0.0 | 0.00 | 0.67 | 0.67 | 71 | 1006.7 |
| 20260508224005 | 78 | 148 | 0.9 | 0.9 | 0.00 | 0.67 | 0.67 | 70 | 1006.7 |
| 20260508223503 | 78 | 225 | 0.0 | 0.0 | 0.00 | 0.67 | 0.67 | 70 | 1006.7 |
| 20260508223000 | 78 | 310 | 0.0 | 0.0 | 0.00 | 0.67 | 0.67 | 70 | 1007.0 |
| 20260508222458 | 78 | 253 | 1.7 | 2.6 | 0.00 | 0.67 | 0.67 | 69 | 1006.6 |
| 20260508221954 | 79 | 319 | 0.0 | 0.9 | 0.00 | 0.67 | 0.67 | 68 | 1006.6 |
| 20260508221450 | 80 | 284 | 0.0 | 0.0 | 0.00 | 0.67 | 0.67 | 68 | 1006.6 |
| 20260508220946 | 80 | 253 | 0.0 | 0.9 | 0.00 | 0.67 | 0.67 | 67 | 1006.7 |
| 20260508220443 | 79 | 332 | 0.0 | 0.9 | 0.00 | 0.67 | 0.67 | 67 | 1006.7 |
| 20260508215939 | 79 | 252 | 0.0 | 0.0 | 0.00 | 0.67 | 0.67 | 68 | 1006.4 |
| 20260508215436 | 79 | 213 | 0.0 | 0.0 | 0.00 | 0.67 | 0.67 | 66 | 1006.6 |
| 20260508214932 | 80 | 270 | 0.9 | 0.9 | 0.00 | 0.67 | 0.67 | 65 | 1006.7 |
| 20260508214431 | 80 | 307 | 0.0 | 0.0 | 0.00 | 0.67 | 0.67 | 66 | 1006.5 |
| 20260508213926 | 79 | 94 | 0.0 | 0.9 | 0.00 | 0.67 | 0.67 | 66 | 1006.6 |
| 20260508213424 | 79 | 216 | 0.0 | 0.9 | 0.00 | 0.67 | 0.67 | 66 | 1006.4 |
| 20260508212919 | 79 | 178 | 1.7 | 1.7 | 0.00 | 0.67 | 0.67 | 66 | 1006.5 |
| 20260508212416 | 79 | 221 | 0.0 | 0.0 | 0.00 | 0.67 | 0.67 | 65 | 1006.7 |
| 20260508211912 | 79 | 262 | 1.7 | 2.6 | 0.00 | 0.67 | 0.67 | 67 | 1006.6 |
| 20260508211408 | 79 | 275 | 0.0 | 0.0 | 0.00 | 0.67 | 0.67 | 66 | 1006.6 |
| 20260508210906 | 79 | 197 | 0.9 | 1.7 | 0.00 | 0.67 | 0.67 | 66 | 1007.2 |
| 20260508210402 | 79 | 189 | 0.0 | 0.9 | 0.00 | 0.67 | 0.67 | 67 | 1007.3 |
| 20260508205858 | 78 | 113 | 0.9 | 4.3 | 0.00 | 0.67 | 0.67 | 67 | 1007.6 |
| 20260508205355 | 78 | 183 | 0.9 | 1.7 | 0.00 | 0.67 | 0.67 | 67 | 1007.8 |
| 20260508204851 | 76 | 297 | 0.0 | 0.9 | 0.00 | 0.67 | 0.67 | 69 | 1007.9 |
| 20260508204348 | 76 | 166 | 0.0 | 0.9 | 0.00 | 0.67 | 0.67 | 69 | 1008.1 |
| 20260508203844 | 77 | 135 | 0.0 | 0.9 | 0.00 | 0.67 | 0.67 | 69 | 1008.2 |
| 20260508203340 | 77 | 228 | 0.0 | 0.0 | 0.00 | 0.67 | 0.67 | 69 | 1008.4 |
| 20260508202836 | 77 | 264 | 0.0 | 0.0 | 0.00 | 0.67 | 0.67 | 68 | 1008.4 |
| 20260508202334 | 77 | 245 | 0.9 | 0.9 | 0.00 | 0.67 | 0.67 | 68 | 1008.7 |
| 20260508201831 | 77 | 151 | 0.9 | 0.9 | 0.00 | 0.67 | 0.67 | 69 | 1008.6 |
| 20260508201328 | 77 | 284 | 0.0 | 0.0 | 0.00 | 0.67 | 0.67 | 68 | 1008.5 |
| 20260508200824 | 77 | 314 | 0.0 | 0.0 | 0.00 | 0.67 | 0.67 | 68 | 1008.6 |
| 20260508200321 | 78 | 240 | 0.9 | 1.7 | 0.00 | 0.67 | 0.67 | 67 | 1008.8 |
| 20260508195817 | 78 | 310 | 0.9 | 1.7 | 0.00 | 0.67 | 0.67 | 67 | 1008.5 |
| 20260508195314 | 78 | 295 | 0.0 | 0.0 | 0.00 | 0.67 | 0.67 | 67 | 1008.6 |
| 20260508194810 | 78 | 252 | 0.0 | 0.0 | 0.00 | 0.67 | 0.67 | 65 | 1009.0 |
| 20260508194307 | 79 | 242 | 0.0 | 0.9 | 0.00 | 0.67 | 0.67 | 65 | 1008.7 |
| 20260508193804 | 78 | 199 | 0.9 | 1.7 | 0.00 | 0.67 | 0.67 | 66 | 1008.7 |
| 20260508193301 | 79 | 247 | 4.3 | 7.8 | 0.00 | 0.67 | 0.67 | 64 | 1009.0 |
| 20260508192757 | 79 | 202 | 0.0 | 0.9 | 0.00 | 0.67 | 0.67 | 64 | 1008.8 |
| 20260508192254 | 79 | 98 | 2.6 | 4.3 | 0.00 | 0.67 | 0.67 | 62 | 1008.9 |
| 20260508191751 | 80 | 315 | 0.0 | 0.0 | 0.00 | 0.67 | 0.67 | 62 | 1009.0 |
| 20260508191249 | 80 | 193 | 1.7 | 4.3 | 0.00 | 0.67 | 0.67 | 62 | 1008.8 |
| 20260508190746 | 79 | 268 | 0.0 | 0.0 | 0.00 | 0.67 | 0.67 | 62 | 1008.9 |
| 20260508190242 | 80 | 196 | 0.0 | 0.9 | 0.00 | 0.67 | 0.67 | 63 | 1008.9 |
| 20260508185738 | 79 | 195 | 0.9 | 1.7 | 0.00 | 0.67 | 0.67 | 63 | 1009.0 |
| 20260508185236 | 78 | 158 | 0.0 | 0.9 | 0.00 | 0.67 | 0.67 | 63 | 1009.0 |
| 20260508184733 | 78 | 264 | 0.0 | 0.0 | 0.00 | 0.67 | 0.67 | 63 | 1008.9 |
| 20260508184230 | 79 | 161 | 0.0 | 0.9 | 0.00 | 0.67 | 0.67 | 63 | 1009.1 |
| 20260508183727 | 78 | 338 | 0.0 | 0.9 | 0.00 | 0.67 | 0.67 | 62 | 1009.1 |
| 20260508183223 | 78 | 290 | 0.0 | 0.0 | 0.00 | 0.67 | 0.67 | 63 | 1009.2 |
| 20260508182719 | 78 | 265 | 0.0 | 0.0 | 0.00 | 0.67 | 0.67 | 62 | 1009.4 |
| 20260508182216 | 78 | 307 | 0.0 | 0.0 | 0.00 | 0.67 | 0.67 | 64 | 1009.5 |
| 20260508181712 | 78 | 305 | 0.0 | 0.9 | 0.00 | 0.67 | 0.67 | 64 | 1009.3 |
| 20260508181209 | 77 | 184 | 0.0 | 0.0 | 0.00 | 0.67 | 0.67 | 63 | 1009.7 |
| 20260508180706 | 77 | 80 | 0.9 | 0.9 | 0.00 | 0.67 | 0.67 | 63 | 1009.8 |
| 20260508180203 | 76 | 173 | 0.0 | 0.0 | 0.00 | 0.67 | 0.67 | 65 | 1010.0 |
| 20260508175659 | 75 | 359 | 0.0 | 0.9 | 0.00 | 0.67 | 0.67 | 65 | 1009.8 |
| 20260508175156 | 75 | 311 | 0.0 | 0.9 | 0.00 | 0.67 | 0.67 | 66 | 1010.1 |
| 20260508174654 | 75 | 322 | 0.0 | 0.0 | 0.00 | 0.67 | 0.67 | 66 | 1010.2 |
| 20260508174150 | 75 | 103 | 1.7 | 4.3 | 0.00 | 0.67 | 0.67 | 64 | 1009.9 |
| 20260508173647 | 75 | 282 | 0.0 | 0.0 | 0.00 | 0.67 | 0.67 | 67 | 1010.0 |
| 20260508173143 | 75 | 228 | 0.0 | 0.9 | 0.00 | 0.67 | 0.67 | 67 | 1010.3 |
| 20260508172640 | 74 | 259 | 0.0 | 0.9 | 0.00 | 0.67 | 0.67 | 69 | 1010.3 |
| 20260508172137 | 73 | 256 | 0.9 | 1.7 | 0.00 | 0.67 | 0.67 | 69 | 1010.3 |
| 20260508171633 | 74 | 280 | 0.0 | 0.0 | 0.00 | 0.67 | 0.67 | 68 | 1010.6 |
| 20260508171130 | 73 | 290 | 0.9 | 0.9 | 0.00 | 0.67 | 0.67 | 68 | 1010.7 |
| 20260508170627 | 74 | 26 | 0.0 | 0.0 | 0.00 | 0.67 | 0.67 | 68 | 1010.9 |
| 20260508170125 | 74 | 268 | 0.0 | 0.0 | 0.00 | 0.67 | 0.67 | 68 | 1011.1 |
| 20260508165622 | 74 | 307 | 0.0 | 0.0 | 0.00 | 0.67 | 0.67 | 69 | 1011.4 |
| 20260508165118 | 73 | 323 | 0.0 | 0.0 | 0.00 | 0.67 | 0.67 | 68 | 1011.4 |
| 20260508164614 | 73 | 229 | 0.0 | 0.9 | 0.00 | 0.67 | 0.67 | 70 | 1011.2 |
| 20260508164112 | 72 | 230 | 0.0 | 0.9 | 0.00 | 0.67 | 0.67 | 70 | 1011.6 |
| 20260508163609 | 72 | 311 | 0.0 | 0.9 | 0.00 | 0.67 | 0.67 | 70 | 1011.5 |
| 20260508163106 | 71 | 301 | 0.0 | 0.0 | 0.00 | 0.67 | 0.67 | 70 | 1011.6 |
| 20260508162602 | 71 | 159 | 1.7 | 2.6 | 0.00 | 0.67 | 0.67 | 70 | 1011.6 |
| 20260508162100 | 70 | 332 | 0.0 | 0.0 | 0.00 | 0.67 | 0.67 | 72 | 1012.0 |
| 20260508161556 | 69 | 289 | 0.0 | 0.0 | 0.00 | 0.67 | 0.67 | 75 | 1012.0 |
| 20260508161054 | 69 | 263 | 0.9 | 1.7 | 0.00 | 0.67 | 0.67 | 75 | 1012.1 |
| 20260508160552 | 68 | 319 | 0.0 | 0.0 | 0.00 | 0.67 | 0.67 | 77 | 1011.9 |
| 20260508160049 | 68 | 331 | 0.0 | 0.9 | 0.00 | 0.67 | 0.67 | 77 | 1012.3 |
| 20260508155546 | 68 | 320 | 0.0 | 0.9 | 0.00 | 0.67 | 0.67 | 79 | 1012.0 |
| 20260508155043 | 67 | 288 | 0.0 | 0.0 | 0.00 | 0.67 | 0.67 | 81 | 1012.1 |
| 20260508154540 | 65 | 298 | 0.0 | 0.0 | 0.00 | 0.67 | 0.67 | 85 | 1012.1 |
| 20260508154037 | 65 | 309 | 0.0 | 0.0 | 0.00 | 0.67 | 0.67 | 91 | 1012.7 |
| 20260508153533 | 63 | 278 | 1.7 | 1.7 | 0.00 | 0.67 | 0.67 | 92 | 1012.5 |
| 20260508153030 | 63 | 307 | 0.0 | 0.0 | 0.00 | 0.67 | 0.67 | 95 | 1012.2 |
| 20260508152527 | 62 | 101 | 0.9 | 2.6 | 0.00 | 0.67 | 0.67 | 97 | 1012.4 |
| 20260508152022 | 62 | 300 | 0.0 | 0.0 | 0.00 | 0.67 | 0.67 | 97 | 1012.5 |
| 20260508151520 | 62 | 309 | 0.0 | 0.0 | 0.00 | 0.67 | 0.67 | 98 | 1012.3 |
| 20260508151016 | 62 | 294 | 0.0 | 0.0 | 0.00 | 0.67 | 0.67 | 98 | 1012.3 |
| 20260508150514 | 62 | 311 | 0.0 | 0.9 | 0.00 | 0.67 | 0.67 | 98 | 1012.6 |
| 20260508150009 | 62 | 264 | 0.0 | 0.0 | 0.00 | 0.67 | 0.67 | 98 | 1012.6 |
| 20260508145506 | 63 | 319 | 0.0 | 0.0 | 0.00 | 0.67 | 0.67 | 99 | 1012.7 |
| 20260508145001 | 63 | 64 | 0.0 | 0.0 | 0.00 | 0.67 | 0.67 | 99 | 1012.3 |
| 20260508144454 | 62 | 164 | 0.0 | 0.0 | 0.00 | 0.67 | 0.67 | 99 | 1012.4 |
| 20260508143951 | 63 | 320 | 0.0 | 0.0 | 0.00 | 0.67 | 0.67 | 99 | 1012.7 |
| 20260508143449 | 62 | 325 | 0.0 | 0.0 | 0.00 | 0.67 | 0.67 | 99 | 1012.4 |
| 20260508142945 | 62 | 290 | 0.0 | 0.0 | 0.00 | 0.67 | 0.67 | 99 | 1012.6 |
| 20260508142442 | 62 | 307 | 0.0 | 0.0 | 0.00 | 0.67 | 0.67 | 99 | 1012.8 |
| 20260508141938 | 61 | 312 | 0.0 | 0.0 | 0.00 | 0.67 | 0.67 | 99 | 1012.5 |
| 20260508141435 | 62 | 326 | 0.0 | 0.0 | 0.00 | 0.67 | 0.67 | 99 | 1012.5 |
| 20260508140933 | 62 | 317 | 0.9 | 0.9 | 0.00 | 0.67 | 0.67 | 99 | 1012.6 |
| 20260508140430 | 61 | 359 | 0.0 | 0.0 | 0.00 | 0.67 | 0.67 | 99 | 1012.9 |
| 20260508135925 | 61 | 331 | 0.0 | 0.0 | 0.00 | 0.67 | 0.67 | 99 | 1012.9 |
| 20260508135422 | 61 | 329 | 0.0 | 0.0 | 0.00 | 0.67 | 0.67 | 99 | 1012.7 |
| 20260508134919 | 62 | 332 | 0.0 | 0.0 | 0.00 | 0.67 | 0.67 | 99 | 1012.6 |
| 20260508134415 | 62 | 324 | 0.0 | 0.0 | 0.00 | 0.67 | 0.67 | 99 | 1012.6 |
| 20260508133912 | 62 | 326 | 0.0 | 0.0 | 0.00 | 0.67 | 0.67 | 99 | 1012.8 |
| 20260508133410 | 61 | 337 | 0.0 | 0.0 | 0.00 | 0.67 | 0.67 | 99 | 1012.8 |
| 20260508132906 | 60 | 321 | 0.0 | 0.0 | 0.00 | 0.67 | 0.67 | 99 | 1012.5 |
| 20260508132404 | 60 | 321 | 0.0 | 0.0 | 0.00 | 0.67 | 0.67 | 99 | 1012.6 |
| 20260508131901 | 60 | 325 | 0.0 | 0.0 | 0.00 | 0.67 | 0.67 | 99 | 1012.7 |
| 20260508131356 | 60 | 306 | 0.0 | 0.0 | 0.00 | 0.67 | 0.67 | 99 | 1012.7 |
| 20260508130853 | 60 | 306 | 0.0 | 0.0 | 0.07 | 0.67 | 0.67 | 99 | 1012.5 |
| 20260508130350 | 60 | 17 | 0.0 | 0.0 | 0.07 | 0.67 | 0.67 | 99 | 1012.5 |
| 20260508125846 | 60 | 351 | 0.0 | 0.0 | 0.05 | 0.66 | 0.66 | 99 | 1012.6 |
| 20260508125342 | 60 | 302 | 0.0 | 0.0 | 0.00 | 0.65 | 0.65 | 99 | 1013.2 |
| 20260508124840 | 59 | 269 | 0.0 | 0.0 | 0.00 | 0.65 | 0.65 | 99 | 1013.5 |
| 20260508124337 | 59 | 353 | 0.0 | 0.0 | 0.00 | 0.65 | 0.65 | 99 | 1012.8 |
| 20260508123836 | 59 | 331 | 0.0 | 0.0 | 0.00 | 0.65 | 0.65 | 99 | 1012.8 |
| 20260508123334 | 59 | 272 | 0.0 | 0.0 | 0.00 | 0.65 | 0.65 | 99 | 1013.3 |
| 20260508122830 | 59 | 311 | 0.0 | 0.0 | 0.00 | 0.65 | 0.65 | 99 | 1013.1 |
| 20260508122327 | 59 | 311 | 0.0 | 0.0 | 0.00 | 0.65 | 0.65 | 99 | 1012.9 |
| 20260508121824 | 60 | 304 | 0.0 | 0.0 | 0.07 | 0.65 | 0.65 | 99 | 1013.1 |
| 20260508121322 | 60 | 304 | 0.0 | 0.0 | 0.07 | 0.65 | 0.65 | 99 | 1013.0 |
| 20260508120819 | 60 | 305 | 0.0 | 0.0 | 0.00 | 0.64 | 0.64 | 99 | 1013.0 |
| 20260508120318 | 60 | 322 | 0.0 | 0.0 | 0.00 | 0.64 | 0.64 | 99 | 1013.0 |
| 20260508115814 | 60 | 243 | 0.0 | 0.0 | 0.00 | 0.64 | 0.64 | 99 | 1012.7 |
| 20260508115312 | 60 | 290 | 0.0 | 0.0 | 0.00 | 0.64 | 0.64 | 99 | 1012.5 |
| 20260508114809 | 60 | 334 | 0.0 | 0.0 | 0.00 | 0.64 | 0.64 | 99 | 1013.0 |
| 20260508114306 | 60 | 51 | 0.0 | 0.0 | 0.00 | 0.64 | 0.64 | 99 | 1012.8 |
| 20260508113802 | 60 | 127 | 0.0 | 0.0 | 0.00 | 0.64 | 0.64 | 99 | 1012.8 |
| 20260508113300 | 60 | 132 | 0.0 | 0.0 | 0.00 | 0.64 | 0.64 | 99 | 1012.8 |
| 20260508112756 | 60 | 132 | 0.0 | 0.0 | 0.00 | 0.64 | 0.64 | 99 | 1012.5 |
| 20260508112253 | 60 | 132 | 0.0 | 0.0 | 0.12 | 0.64 | 0.64 | 99 | 1012.5 |
| 20260508111749 | 59 | 132 | 0.0 | 0.0 | 0.47 | 0.64 | 0.64 | 99 | 1012.6 |
| 20260508111247 | 60 | 123 | 0.0 | 0.9 | 0.90 | 0.63 | 0.63 | 99 | 1012.3 |
| 20260508110744 | 60 | 290 | 0.0 | 0.0 | 0.85 | 0.58 | 0.58 | 99 | 1012.4 |
| 20260508110242 | 60 | 354 | 0.0 | 0.0 | 0.31 | 0.46 | 0.46 | 99 | 1012.7 |
| 20260508105741 | 60 | 313 | 0.0 | 0.0 | 0.64 | 0.44 | 0.44 | 99 | 1013.1 |
| 20260508105238 | 60 | 306 | 0.0 | 0.0 | 0.40 | 0.40 | 0.40 | 99 | 1013.5 |
| 20260508104736 | 60 | 295 | 0.0 | 0.0 | 0.07 | 0.33 | 0.33 | 99 | 1013.6 |
| 20260508104233 | 60 | 332 | 0.0 | 0.0 | 0.00 | 0.32 | 0.32 | 99 | 1012.6 |
| 20260508103730 | 60 | 346 | 0.0 | 0.0 | 0.00 | 0.32 | 0.32 | 98 | 1012.8 |
| 20260508103227 | 60 | 293 | 0.0 | 0.9 | 0.07 | 0.32 | 0.32 | 98 | 1013.3 |
| 20260508102724 | 60 | 307 | 0.0 | 0.0 | 0.24 | 0.32 | 0.32 | 99 | 1012.8 |
| 20260508102222 | 60 | 353 | 0.0 | 0.0 | 0.28 | 0.31 | 0.31 | 98 | 1012.3 |
| 20260508101719 | 60 | 331 | 0.0 | 0.0 | 0.19 | 0.28 | 0.28 | 98 | 1012.6 |
| 20260508101216 | 60 | 269 | 0.9 | 1.7 | 0.07 | 0.26 | 0.26 | 98 | 1012.7 |
| 20260508100714 | 60 | 326 | 0.0 | 0.0 | 0.00 | 0.25 | 0.25 | 98 | 1011.8 |
| 20260508100212 | 60 | 326 | 0.0 | 0.0 | 0.00 | 0.25 | 0.25 | 98 | 1011.6 |
| 20260508095707 | 60 | 302 | 0.0 | 0.0 | 0.00 | 0.25 | 0.25 | 98 | 1011.6 |
| 20260508095206 | 60 | 297 | 0.0 | 0.0 | 0.00 | 0.25 | 0.25 | 98 | 1011.8 |
| 20260508094702 | 60 | 297 | 0.0 | 0.0 | 0.00 | 0.25 | 0.25 | 98 | 1011.9 |
| 20260508094159 | 60 | 297 | 0.0 | 0.0 | 0.00 | 0.25 | 0.25 | 98 | 1012.1 |
| 20260508093656 | 60 | 297 | 0.0 | 0.0 | 0.00 | 0.25 | 0.25 | 98 | 1012.0 |
| 20260508093154 | 60 | 297 | 0.0 | 0.0 | 0.00 | 0.25 | 0.25 | 98 | 1011.9 |
| 20260508092650 | 60 | 297 | 0.0 | 0.0 | 0.00 | 0.25 | 0.25 | 98 | 1012.1 |
| 20260508092149 | 60 | 297 | 0.0 | 0.0 | 0.00 | 0.25 | 0.25 | 98 | 1012.3 |
| 20260508091646 | 60 | 297 | 0.0 | 0.0 | 0.00 | 0.25 | 0.25 | 98 | 1012.2 |
| 20260508091143 | 60 | 296 | 0.0 | 0.0 | 0.00 | 0.25 | 0.25 | 97 | 1012.3 |
| 20260508090641 | 59 | 286 | 0.0 | 0.0 | 0.00 | 0.25 | 0.25 | 97 | 1011.8 |
| 20260508090138 | 59 | 296 | 0.0 | 0.0 | 0.00 | 0.25 | 0.25 | 97 | 1012.1 |
| 20260508085634 | 59 | 297 | 0.0 | 0.0 | 0.00 | 0.25 | 0.25 | 97 | 1012.5 |
| 20260508085131 | 59 | 297 | 0.0 | 0.0 | 0.00 | 0.25 | 0.25 | 97 | 1012.7 |
| 20260508084628 | 59 | 296 | 0.0 | 0.0 | 0.00 | 0.25 | 0.25 | 97 | 1012.5 |
| 20260508084125 | 59 | 296 | 0.0 | 0.0 | 0.00 | 0.25 | 0.25 | 96 | 1012.7 |
| 20260508083622 | 59 | 298 | 0.9 | 1.7 | 0.00 | 0.25 | 0.25 | 96 | 1013.1 |
| 20260508083119 | 59 | 296 | 0.0 | 0.0 | 0.12 | 0.25 | 0.25 | 96 | 1012.2 |
| 20260508082614 | 59 | 112 | 0.0 | 0.9 | 0.12 | 0.25 | 0.25 | 96 | 1011.8 |
| 20260508082112 | 59 | 218 | 0.0 | 0.9 | 0.00 | 0.23 | 0.23 | 95 | 1012.1 |
| 20260508081609 | 59 | 295 | 0.0 | 0.0 | 0.00 | 0.23 | 0.23 | 95 | 1013.0 |
| 20260508081106 | 59 | 302 | 0.0 | 0.0 | 0.05 | 0.23 | 0.23 | 95 | 1013.0 |
| 20260508080603 | 60 | 331 | 0.0 | 0.0 | 0.78 | 0.23 | 0.23 | 94 | 1013.0 |
| 20260508080101 | 60 | 214 | 0.9 | 0.9 | 0.90 | 0.22 | 0.22 | 92 | 1013.2 |
| 20260508075557 | 61 | 335 | 0.0 | 0.0 | 0.47 | 0.12 | 0.12 | 91 | 1013.4 |
| 20260508075055 | 61 | 297 | 0.0 | 0.0 | 0.42 | 0.07 | 0.07 | 89 | 1014.0 |
| 20260508074552 | 63 | 288 | 0.9 | 1.7 | 0.17 | 0.03 | 0.03 | 85 | 1014.1 |
| 20260508074049 | 62 | 296 | 0.0 | 0.0 | 0.00 | 0.00 | 0.00 | 82 | 1014.0 |
| 20260508073546 | 62 | 296 | 0.0 | 0.0 | 0.00 | 0.00 | 0.00 | 81 | 1013.6 |
| 20260508073044 | 62 | 302 | 0.0 | 0.0 | 0.00 | 0.00 | 0.00 | 81 | 1013.6 |
| 20260508072539 | 62 | 302 | 0.0 | 0.0 | 0.00 | 0.00 | 0.00 | 81 | 1013.4 |
| 20260508072036 | 62 | 315 | 0.0 | 0.0 | 0.00 | 0.00 | 0.00 | 81 | 1013.2 |
| 20260508071534 | 62 | 93 | 0.9 | 0.9 | 0.00 | 0.00 | 0.00 | 81 | 1013.0 |
| 20260508071032 | 62 | 319 | 0.0 | 0.0 | 0.00 | 0.00 | 0.00 | 82 | 1013.6 |
| 20260508070530 | 62 | 319 | 0.0 | 0.0 | 0.00 | 0.00 | 0.00 | 82 | 1013.6 |
| 20260508070028 | 62 | 333 | 0.0 | 0.0 | 0.00 | 0.00 | 0.00 | 82 | 1013.2 |
| 20260508065525 | 62 | 333 | 0.0 | 0.0 | 0.00 | 0.00 | 0.00 | 82 | 1013.4 |
| 20260508065023 | 62 | 3 | 0.0 | 0.0 | 0.00 | 0.00 | 0.00 | 82 | 1013.4 |
| 20260508064520 | 62 | 359 | 0.0 | 0.0 | 0.00 | 0.00 | 0.00 | 82 | 1013.8 |
| 20260508064018 | 62 | 6 | 0.0 | 0.0 | 0.00 | 0.00 | 0.00 | 83 | 1013.8 |
| 20260508063515 | 61 | 329 | 0.0 | 0.0 | 0.00 | 0.00 | 0.00 | 83 | 1013.9 |
| 20260508063013 | 61 | 304 | 0.0 | 0.0 | 0.00 | 0.00 | 0.00 | 83 | 1014.0 |
| 20260508062510 | 61 | 318 | 0.0 | 0.0 | 0.00 | 0.00 | 0.00 | 83 | 1014.2 |
| 20260508062007 | 61 | 323 | 0.0 | 0.0 | 0.00 | 0.00 | 0.00 | 83 | 1014.1 |
| 20260508061505 | 61 | 319 | 0.0 | 0.0 | 0.00 | 0.00 | 0.00 | 83 | 1014.1 |
| 20260508061001 | 62 | 319 | 0.0 | 0.0 | 0.00 | 0.00 | 0.00 | 82 | 1013.8 |
| 20260508060458 | 62 | 319 | 0.0 | 0.0 | 0.00 | 0.00 | 0.00 | 82 | 1013.8 |
| 20260508055954 | 62 | 319 | 0.0 | 0.0 | 0.00 | 0.00 | 0.00 | 82 | 1013.5 |
| 20260508055451 | 62 | 319 | 0.0 | 0.0 | 0.00 | 0.00 | 0.00 | 81 | 1013.6 |
| 20260508054948 | 62 | 319 | 0.0 | 0.0 | 0.00 | 0.00 | 0.00 | 81 | 1013.6 |